Time;durP1;ratioP1;P1;durP2;ratioP2;P2;SDS_P1;SDS_P2;PMS_P1;PMS_P2;Temp;Humidity;BMP_temperature;BMP_pressure;BME280_temperature;BME280_humidity;BME280_pressure;Samples;Min_cycle;Max_cycle;Signal;HPM_P1;HPM_P2
2022/08/29 00:01:22;;;;;;;5.45;2.15;;;15.00;99.90;;;;;;5114386;28;20467;-74
2022/08/29 00:03:48;;;;;;;2.15;1.52;;;15.00;99.90;;;;;;5114296;28;20474;-74
2022/08/29 00:06:13;;;;;;;3.45;2.55;;;14.90;99.90;;;;;;5114280;28;20043;-75
2022/08/29 00:08:39;;;;;;;1.52;1.52;;;14.90;99.90;;;;;;5114280;28;20023;-74
2022/08/29 00:11:06;;;;;;;2.08;1.63;;;14.90;99.90;;;;;;5114232;28;20030;-73
2022/08/29 00:13:33;;;;;;;1.33;1.25;;;14.80;99.90;;;;;;5114407;28;20072;-75
2022/08/29 00:15:59;;;;;;;1.33;1.23;;;14.90;99.90;;;;;;5114206;28;20023;-75
2022/08/29 00:18:25;;;;;;;1.38;1.00;;;14.80;99.90;;;;;;5114077;28;20371;-74
2022/08/29 00:20:51;;;;;;;1.02;0.93;;;14.80;99.90;;;;;;5114336;28;20027;-73
2022/08/29 00:23:17;;;;;;;1.90;1.50;;;14.80;99.90;;;;;;5114106;28;20024;-75
2022/08/29 00:25:43;;;;;;;2.85;1.65;;;14.80;99.90;;;;;;5113792;28;20035;-75
2022/08/29 00:28:08;;;;;;;3.03;1.17;;;14.80;99.90;;;;;;5096431;28;20399;-75
2022/08/29 00:30:35;;;;;;;1.77;1.67;;;14.70;99.90;;;;;;5113848;28;20455;-74
2022/08/29 00:33:01;;;;;;;3.42;2.03;;;14.70;99.90;;;;;;5114007;28;20016;-74
2022/08/29 00:35:31;;;;;;;1.30;0.82;;;14.70;99.90;;;;;;5113937;28;20145;-74
2022/08/29 00:37:57;;;;;;;1.92;1.23;;;14.70;99.90;;;;;;5095858;28;20031;-74
2022/08/29 00:40:27;;;;;;;1.40;1.20;;;14.60;99.90;;;;;;5113886;28;20023;-73
2022/08/29 00:42:53;;;;;;;3.13;1.77;;;14.60;99.90;;;;;;5114095;28;20026;-74
2022/08/29 00:45:20;;;;;;;2.50;1.85;;;14.60;99.90;;;;;;5095354;28;20023;-75
2022/08/29 00:47:54;;;;;;;4.35;1.20;;;14.50;99.90;;;;;;5113677;28;20028;-74
2022/08/29 00:50:34;;;;;;;5.20;1.15;;;14.40;99.90;;;;;;5113716;28;20051;-74
2022/08/29 00:53:03;;;;;;;1.25;1.15;;;14.40;99.90;;;;;;5114089;28;20472;-74
2022/08/29 00:55:33;;;;;;;1.83;1.65;;;14.40;99.90;;;;;;5113878;28;20055;-74
2022/08/29 00:58:07;;;;;;;3.08;1.35;;;14.40;99.90;;;;;;5113795;28;20043;-75
2022/08/29 01:00:33;;;;;;;2.85;2.65;;;14.40;99.90;;;;;;5113900;28;20435;-75
2022/08/29 01:02:59;;;;;;;4.72;1.77;;;14.40;99.90;;;;;;5113236;28;20067;-75
2022/08/29 01:05:25;;;;;;;2.35;1.98;;;14.40;99.90;;;;;;5113741;28;20074;-75
2022/08/29 01:07:51;;;;;;;1.20;1.10;;;14.30;99.90;;;;;;5113719;28;20472;-75
2022/08/29 01:13:06;;;;;;;1.58;1.40;;;14.30;99.90;;;;;;5113983;28;20391;-73
2022/08/29 01:15:33;;;;;;;1.42;1.05;;;14.20;99.90;;;;;;5114010;28;20028;-74
2022/08/29 01:18:01;;;;;;;3.03;1.35;;;14.20;99.90;;;;;;5113437;28;20494;-74
2022/08/29 01:20:35;;;;;;;1.83;1.20;;;14.20;99.90;;;;;;5113688;28;20031;-74
2022/08/29 01:23:24;;;;;;;5.97;1.50;;;14.10;99.90;;;;;;5116035;28;20019;-75
2022/08/29 01:25:51;;;;;;;2.95;2.10;;;14.10;99.90;;;;;;5116199;28;20048;-73
2022/08/29 01:28:27;;;;;;;3.03;1.45;;;14.10;99.90;;;;;;5117555;28;20365;-73
2022/08/29 01:31:01;;;;;;;2.53;2.05;;;14.10;99.90;;;;;;5117430;28;20023;-74
2022/08/29 01:33:42;;;;;;;1.90;1.80;;;14.10;99.90;;;;;;5117507;28;20027;-73
2022/08/29 01:36:10;;;;;;;1.75;1.45;;;14.10;99.90;;;;;;5117555;28;20380;-73
2022/08/29 01:38:37;;;;;;;2.92;1.90;;;14.10;99.90;;;;;;5117132;28;20027;-75
2022/08/29 01:41:04;;;;;;;3.50;2.22;;;14.10;99.90;;;;;;5117192;28;20443;-74
2022/08/29 01:43:30;;;;;;;1.52;1.42;;;14.10;99.90;;;;;;5117228;28;20016;-74
2022/08/29 01:45:57;;;;;;;1.45;1.27;;;14.10;99.90;;;;;;5116994;28;20020;-73
2022/08/29 01:48:23;;;;;;;1.17;1.08;;;14.10;99.90;;;;;;5116983;28;20023;-75
2022/08/29 01:50:49;;;;;;;3.17;2.28;;;14.20;99.90;;;;;;5117225;28;20053;-74
2022/08/29 01:53:15;;;;;;;1.73;1.63;;;14.20;99.90;;;;;;5117373;28;20028;-74
2022/08/29 01:55:41;;;;;;;1.80;1.25;;;14.10;99.90;;;;;;5116985;28;20475;-75
2022/08/29 01:58:07;;;;;;;4.43;1.98;;;14.00;99.90;;;;;;5116960;28;20177;-75
2022/08/29 02:00:33;;;;;;;3.40;1.40;;;14.00;99.90;;;;;;5116812;28;20016;-74
2022/08/29 02:03:00;;;;;;;4.68;2.53;;;13.90;99.90;;;;;;5116835;28;20401;-74
2022/08/29 02:05:28;;;;;;;7.25;2.05;;;13.90;99.90;;;;;;5098590;28;20024;-74
2022/08/29 02:07:55;;;;;;;4.40;1.90;;;13.90;99.90;;;;;;5098644;28;20031;-74
2022/08/29 02:10:22;;;;;;;1.45;1.45;;;13.80;99.90;;;;;;5116991;28;20294;-74
2022/08/29 02:12:47;;;;;;;3.30;2.35;;;13.90;99.90;;;;;;5116843;28;20107;-75
2022/08/29 02:15:13;;;;;;;2.03;1.20;;;13.90;99.90;;;;;;5098345;28;20485;-74
2022/08/29 02:17:39;;;;;;;2.40;1.92;;;13.90;99.90;;;;;;5116512;28;20043;-75
2022/08/29 02:20:07;;;;;;;1.48;1.25;;;13.90;99.90;;;;;;5116919;28;20062;-75
2022/08/29 02:22:35;;;;;;;3.63;1.98;;;14.00;99.90;;;;;;5116671;28;20085;-74
2022/08/29 02:25:39;;;;;;;5.68;2.65;;;14.00;99.90;;;;;;5116515;28;20027;-74
2022/08/29 02:27:49;;;;;;;4.00;2.67;;;14.00;99.90;;;;;;5116365;28;20027;-75
2022/08/29 02:30:15;;;;;;;2.13;0.95;;;13.90;99.90;;;;;;5116594;28;20100;-74
2022/08/29 02:32:41;;;;;;;1.63;1.52;;;14.00;99.90;;;;;;5116369;28;20023;-73
2022/08/29 02:35:07;;;;;;;3.92;2.17;;;13.90;99.90;;;;;;5117022;28;20532;-73
2022/08/29 02:37:32;;;;;;;1.40;1.15;;;13.80;99.90;;;;;;5116343;28;20114;-74
2022/08/29 02:39:58;;;;;;;1.95;1.83;;;13.80;99.90;;;;;;5116277;28;20464;-75
2022/08/29 02:42:24;;;;;;;1.52;1.45;;;13.80;99.90;;;;;;5098040;28;20059;-74
2022/08/29 02:44:49;;;;;;;3.33;2.50;;;13.80;99.90;;;;;;5116303;28;20028;-73
2022/08/29 02:47:15;;;;;;;3.72;1.50;;;13.70;99.90;;;;;;5097746;28;20031;-74
2022/08/29 02:49:41;;;;;;;6.13;3.33;;;13.70;99.90;;;;;;5116378;28;20061;-74
2022/08/29 02:52:07;;;;;;;1.95;1.23;;;13.70;99.90;;;;;;5116119;28;20111;-74
2022/08/29 02:54:33;;;;;;;1.50;1.40;;;13.80;99.90;;;;;;5097639;28;20055;-73
2022/08/29 02:56:59;;;;;;;1.42;1.33;;;13.70;99.90;;;;;;5116103;28;20058;-75
2022/08/29 02:59:26;;;;;;;1.55;1.45;;;13.70;99.90;;;;;;5116074;28;20118;-74
2022/08/29 03:01:52;;;;;;;1.40;1.30;;;13.60;99.90;;;;;;5116008;28;20506;-74
2022/08/29 03:04:18;;;;;;;1.05;1.05;;;13.50;99.90;;;;;;5115893;28;20031;-73
2022/08/29 03:06:44;;;;;;;1.83;1.73;;;13.50;99.90;;;;;;5115765;28;20039;-74
2022/08/29 03:09:10;;;;;;;2.53;1.52;;;13.50;99.90;;;;;;5115631;28;20015;-74
2022/08/29 03:11:35;;;;;;;1.55;1.45;;;13.50;99.90;;;;;;5115595;28;20107;-73
2022/08/29 03:14:01;;;;;;;2.72;1.45;;;13.50;99.90;;;;;;5115554;28;20438;-75
2022/08/29 03:16:27;;;;;;;1.00;0.90;;;13.40;99.90;;;;;;5115496;28;20027;-74
2022/08/29 03:18:53;;;;;;;12.05;1.77;;;13.40;99.90;;;;;;5115684;28;20026;-74
2022/08/29 03:21:23;;;;;;;1.35;1.25;;;13.40;99.90;;;;;;5115567;28;20434;-74
2022/08/29 03:23:50;;;;;;;4.22;1.85;;;13.40;99.90;;;;;;5115505;28;20048;-74
2022/08/29 03:26:17;;;;;;;3.42;1.50;;;13.40;99.90;;;;;;5115272;28;20051;-76
2022/08/29 03:28:42;;;;;;;4.35;1.48;;;13.40;99.90;;;;;;5115194;28;20023;-74
2022/08/29 03:31:08;;;;;;;1.75;1.65;;;13.30;99.90;;;;;;5115250;28;20027;-73
2022/08/29 03:33:34;;;;;;;8.75;2.55;;;13.30;99.90;;;;;;5115200;28;20482;-73
2022/08/29 03:36:00;;;;;;;1.08;1.08;;;13.30;99.90;;;;;;5115211;28;20024;-75
2022/08/29 03:38:26;;;;;;;1.50;1.40;;;13.30;99.90;;;;;;5115446;28;20035;-73
2022/08/29 03:40:52;;;;;;;3.20;1.90;;;13.30;99.90;;;;;;5115130;28;20019;-74
2022/08/29 03:43:20;;;;;;;4.40;1.60;;;13.30;99.90;;;;;;5114908;28;20103;-74
2022/08/29 03:45:47;;;;;;;1.42;1.33;;;13.20;99.90;;;;;;5095981;28;20429;-73
2022/08/29 03:48:13;;;;;;;2.17;1.35;;;13.20;99.90;;;;;;5114754;28;20011;-74
2022/08/29 03:50:39;;;;;;;2.38;1.20;;;13.00;99.90;;;;;;5114904;28;20031;-74
2022/08/29 03:53:05;;;;;;;2.20;2.10;;;13.00;99.90;;;;;;5115210;28;20077;-73
2022/08/29 03:55:31;;;;;;;4.47;3.08;;;13.00;99.90;;;;;;5114867;28;20523;-74
2022/08/29 03:57:56;;;;;;;5.25;3.78;;;13.00;99.90;;;;;;5114713;28;20076;-73
2022/08/29 04:00:22;;;;;;;1.25;1.25;;;13.10;99.90;;;;;;5114556;28;20031;-73
2022/08/29 04:02:49;;;;;;;1.33;1.23;;;13.10;99.90;;;;;;5096183;28;20045;-74
2022/08/29 04:05:17;;;;;;;8.40;2.75;;;13.10;99.90;;;;;;5114395;28;20084;-74
2022/08/29 04:07:50;;;;;;;2.17;1.50;;;13.10;99.90;;;;;;5114437;28;20027;-73
2022/08/29 04:10:26;;;;;;;3.63;2.40;;;13.00;99.90;;;;;;5114641;28;20022;-73
2022/08/29 04:12:52;;;;;;;4.68;1.45;;;13.00;99.90;;;;;;5114538;28;20629;-73
2022/08/29 04:15:19;;;;;;;2.85;1.45;;;13.00;99.90;;;;;;5115163;28;20463;-75
2022/08/29 04:17:44;;;;;;;2.40;1.42;;;13.00;99.90;;;;;;5096120;28;20023;-74
2022/08/29 04:20:13;;;;;;;2.47;1.63;;;13.00;99.90;;;;;;5096054;28;20020;-76
2022/08/29 04:22:41;;;;;;;4.28;2.60;;;12.90;99.90;;;;;;5114297;28;20157;-75
2022/08/29 04:25:10;;;;;;;3.35;1.30;;;13.00;99.90;;;;;;5114130;28;20020;-75
2022/08/29 04:27:36;;;;;;;;;;;13.00;99.90;;;;;;5096755;28;20032;-73
2022/08/29 04:30:09;;;;;;;11.05;2.30;;;13.00;99.90;;;;;;5114761;28;19910;-73
2022/08/29 04:32:35;;;;;;;3.15;2.20;;;13.00;99.90;;;;;;5114237;28;20097;-73
2022/08/29 04:35:01;;;;;;;5.35;1.55;;;13.00;99.90;;;;;;5114187;28;20024;-74
2022/08/29 04:37:27;;;;;;;4.13;2.22;;;13.00;99.90;;;;;;5114440;28;20028;-75
2022/08/29 04:39:53;;;;;;;2.97;1.92;;;13.00;99.90;;;;;;5114035;28;20042;-73
2022/08/29 04:42:19;;;;;;;5.60;1.88;;;13.00;99.90;;;;;;5113906;28;20019;-75
2022/08/29 04:44:46;;;;;;;4.05;2.28;;;13.00;99.90;;;;;;5095860;28;20032;-73
2022/08/29 04:47:12;;;;;;;1.90;1.50;;;12.90;99.90;;;;;;5114165;28;20027;-73
2022/08/29 04:49:38;;;;;;;3.20;2.92;;;12.80;99.90;;;;;;5114293;28;20015;-73
2022/08/29 04:52:04;;;;;;;2.47;1.70;;;12.80;99.90;;;;;;5114051;28;20032;-74
2022/08/29 04:54:30;;;;;;;4.72;2.45;;;12.90;99.90;;;;;;5096112;28;20020;-73
2022/08/29 04:56:58;;;;;;;4.95;3.45;;;12.90;99.90;;;;;;5114425;28;20031;-74
2022/08/29 04:59:24;;;;;;;2.85;2.65;;;12.90;99.90;;;;;;5118209;28;20468;-75
2022/08/29 05:01:50;;;;;;;2.60;2.45;;;13.00;99.90;;;;;;5118094;28;20047;-75
2022/08/29 05:04:15;;;;;;;2.92;2.10;;;13.00;99.90;;;;;;5118338;28;20161;-74
2022/08/29 05:06:42;;;;;;;1.85;1.77;;;13.00;99.90;;;;;;5117959;28;20361;-74
2022/08/29 05:09:07;;;;;;;4.32;2.78;;;13.00;99.90;;;;;;5118074;28;20027;-74
2022/08/29 05:11:33;;;;;;;7.00;2.97;;;13.10;99.90;;;;;;5118086;28;20023;-74
2022/08/29 05:13:59;;;;;;;2.40;2.25;;;13.20;99.90;;;;;;5099713;28;20119;-73
2022/08/29 05:16:26;;;;;;;11.43;3.65;;;13.20;99.90;;;;;;5118073;28;20030;-74
2022/08/29 05:18:51;;;;;;;7.43;2.88;;;13.20;99.90;;;;;;5117812;28;20122;-74
2022/08/29 05:21:30;;;;;;;4.28;2.78;;;13.30;99.90;;;;;;5118157;28;20535;-75
2022/08/29 05:23:57;;;;;;;4.68;2.85;;;13.30;99.90;;;;;;5118078;28;20024;-73
2022/08/29 05:26:28;;;;;;;5.35;3.67;;;13.30;99.90;;;;;;5117749;28;20063;-76
2022/08/29 05:28:53;;;;;;;3.08;2.78;;;13.40;99.90;;;;;;5117697;28;20015;-74
2022/08/29 05:31:21;;;;;;;3.78;2.53;;;13.40;99.90;;;;;;5117551;28;20085;-73
2022/08/29 05:33:47;;;;;;;2.75;2.55;;;13.50;99.90;;;;;;5117576;28;20027;-73
2022/08/29 05:36:13;;;;;;;4.13;2.80;;;13.50;99.90;;;;;;5117385;28;20024;-74
2022/08/29 05:38:38;;;;;;;3.15;2.38;;;13.60;99.90;;;;;;5117683;28;20081;-75
2022/08/29 05:41:05;;;;;;;3.55;2.35;;;13.80;99.90;;;;;;5099589;28;20407;-73
2022/08/29 05:43:32;;;;;;;3.42;2.17;;;13.90;99.90;;;;;;5117397;28;20012;-73
2022/08/29 05:46:08;;;;;;;2.20;2.03;;;14.10;99.90;;;;;;5117039;28;20067;-74
2022/08/29 05:48:34;;;;;;;3.00;2.47;;;14.10;99.90;;;;;;5116961;28;20472;-74
2022/08/29 05:51:00;;;;;;;1.73;1.63;;;14.10;99.90;;;;;;5117123;28;20376;-74
2022/08/29 05:53:27;;;;;;;3.35;1.67;;;14.30;99.90;;;;;;5116871;28;20440;-75
2022/08/29 05:55:53;;;;;;;3.38;1.90;;;14.30;99.90;;;;;;5116706;28;20023;-73
2022/08/29 05:58:19;;;;;;;2.03;1.83;;;14.40;99.90;;;;;;5116906;28;20099;-75
2022/08/29 06:00:46;;;;;;;4.57;2.40;;;14.50;99.90;;;;;;5116854;28;20098;-74
2022/08/29 06:03:12;;;;;;;5.63;3.08;;;14.60;99.90;;;;;;5116481;28;20044;-74
2022/08/29 06:05:39;;;;;;;8.13;3.30;;;14.60;99.90;;;;;;5098219;28;20024;-74
2022/08/29 06:08:05;;;;;;;3.35;2.45;;;14.70;99.90;;;;;;5116191;28;20032;-75
2022/08/29 06:10:31;;;;;;;4.03;1.90;;;14.80;99.90;;;;;;5116414;28;20095;-74
2022/08/29 06:12:57;;;;;;;3.85;3.17;;;15.00;99.90;;;;;;5116595;28;20548;-73
2022/08/29 06:15:24;;;;;;;1.88;1.73;;;15.20;99.90;;;;;;5116412;28;20027;-73
2022/08/29 06:17:50;;;;;;;2.50;2.30;;;15.20;99.90;;;;;;5098069;28;20391;-75
2022/08/29 06:20:15;;;;;;;6.60;2.80;;;15.30;99.90;;;;;;5116421;28;20030;-74
2022/08/29 06:22:41;;;;;;;3.08;2.28;;;15.40;99.90;;;;;;5116753;28;20023;-74
2022/08/29 06:25:08;;;;;;;1.40;1.27;;;15.50;99.90;;;;;;5116187;28;20023;-75
2022/08/29 06:27:34;;;;;;;1.15;0.85;;;15.60;99.90;;;;;;5116189;28;20043;-75
2022/08/29 06:30:00;;;;;;;2.72;1.92;;;15.70;99.90;;;;;;5116123;28;20020;-73
2022/08/29 06:32:26;;;;;;;2.45;1.95;;;15.90;99.90;;;;;;5116257;28;20059;-75
2022/08/29 06:34:51;;;;;;;2.28;2.17;;;16.00;99.90;;;;;;5116540;28;20027;-76
2022/08/29 06:37:17;;;;;;;1.52;1.30;;;16.00;99.90;;;;;;5116730;28;20035;-75
2022/08/29 06:39:43;;;;;;;8.88;2.78;;;16.20;99.90;;;;;;5116581;28;20030;-76
2022/08/29 06:42:08;;;;;;;2.85;1.40;;;16.30;99.90;;;;;;5116634;28;20545;-76
2022/08/29 06:44:34;;;;;;;1.70;1.60;;;16.50;99.90;;;;;;5116706;28;20391;-74
2022/08/29 06:47:00;;;;;;;2.85;1.30;;;16.60;99.90;;;;;;5116036;28;20492;-75
2022/08/29 06:49:26;;;;;;;1.75;1.48;;;16.80;99.90;;;;;;5116103;28;20024;-74
2022/08/29 06:51:52;;;;;;;3.13;1.10;;;17.00;99.90;;;;;;5097923;28;20024;-74
2022/08/29 06:54:21;;;;;;;2.10;2.00;;;17.10;99.90;;;;;;5115735;28;20016;-74
2022/08/29 06:56:48;;;;;;;1.42;0.52;;;17.30;99.90;;;;;;5115597;28;20437;-76
2022/08/29 06:59:13;;;;;;;3.22;1.27;;;17.40;99.90;;;;;;5115722;28;20026;-76
2022/08/29 07:01:41;;;;;;;2.42;1.23;;;17.50;99.90;;;;;;5115521;28;20023;-75
2022/08/29 07:04:07;;;;;;;1.45;1.35;;;17.60;99.90;;;;;;5115524;28;20461;-76
2022/08/29 07:06:34;;;;;;;14.88;2.40;;;17.60;99.90;;;;;;5115408;28;20392;-74
2022/08/29 07:09:00;;;;;;;2.80;1.42;;;17.60;99.90;;;;;;5115558;28;20015;-73
2022/08/29 07:11:29;;;;;;;2.10;1.70;;;17.80;99.90;;;;;;5115663;28;20025;-76
2022/08/29 07:13:56;;;;;;;3.28;1.70;;;18.00;99.90;;;;;;5115524;28;20504;-76
2022/08/29 07:16:21;;;;;;;2.28;1.17;;;18.00;99.90;;;;;;5115421;28;20028;-75
2022/08/29 07:18:47;;;;;;;2.33;1.25;;;18.10;99.90;;;;;;5115430;28;20076;-76
2022/08/29 07:21:15;;;;;;;7.72;1.83;;;18.20;99.90;;;;;;5114463;28;20026;-76
2022/08/29 07:23:41;;;;;;;4.57;1.67;;;18.30;99.90;;;;;;5115367;28;20019;-76
2022/08/29 07:26:09;;;;;;;8.90;1.95;;;18.40;99.90;;;;;;5117790;28;20472;-77
2022/08/29 07:28:35;;;;;;;2.90;2.20;;;18.40;99.90;;;;;;5096771;28;20020;-76
2022/08/29 07:31:01;;;;;;;0.88;0.88;;;18.60;99.90;;;;;;5115337;28;20091;-76
2022/08/29 07:33:27;;;;;;;1.38;1.38;;;18.70;99.90;;;;;;5115344;28;20379;-77
2022/08/29 07:35:53;;;;;;;5.57;1.83;;;18.80;99.90;;;;;;5100620;28;20058;-78
2022/08/29 07:38:20;;;;;;;2.03;1.00;;;18.80;99.90;;;;;;5123384;28;20020;-78
2022/08/29 07:40:46;;;;;;;2.97;1.00;;;18.90;99.90;;;;;;5122477;28;20027;-77
2022/08/29 07:43:11;;;;;;;2.10;1.20;;;19.00;99.90;;;;;;5125014;28;20039;-77
2022/08/29 07:45:38;;;;;;;1.55;1.45;;;19.20;99.90;;;;;;5124774;28;20039;-77
2022/08/29 07:48:05;;;;;;;4.63;1.25;;;19.30;99.90;;;;;;5106634;28;20302;-78
2022/08/29 07:50:31;;;;;;;1.17;0.80;;;19.50;99.90;;;;;;5106664;28;20020;-79
2022/08/29 07:52:57;;;;;;;3.08;1.73;;;19.60;99.90;;;;;;5099453;28;20019;-79
2022/08/29 07:55:23;;;;;;;2.60;1.35;;;19.90;99.90;;;;;;5114489;28;20031;-79
2022/08/29 07:57:52;;;;;;;2.45;1.88;;;19.90;99.90;;;;;;5114585;28;20027;-77
2022/08/29 08:00:18;;;;;;;2.42;1.23;;;19.90;99.90;;;;;;5095917;28;20076;-81
2022/08/29 08:02:44;;;;;;;1.02;0.93;;;20.00;99.90;;;;;;5114030;28;20082;-78
2022/08/29 08:05:10;;;;;;;1.75;1.65;;;20.20;99.90;;;;;;5095653;28;20059;-75
2022/08/29 08:07:36;;;;;;;1.52;1.42;;;20.30;99.90;;;;;;5113523;28;20523;-76
2022/08/29 08:10:03;;;;;;;1.90;0.90;;;20.40;99.90;;;;;;5095357;28;20031;-76
2022/08/29 08:12:28;;;;;;;2.80;1.75;;;20.50;99.90;;;;;;5113851;28;20024;-76
2022/08/29 08:14:55;;;;;;;1.27;0.95;;;20.60;99.90;;;;;;5113666;28;20027;-76
2022/08/29 08:17:22;;;;;;;0.88;0.88;;;20.80;99.90;;;;;;5113273;28;20023;-75
2022/08/29 08:19:47;;;;;;;1.58;1.13;;;21.20;99.90;;;;;;5113408;28;20028;-74
2022/08/29 08:22:13;;;;;;;1.05;0.85;;;21.20;99.90;;;;;;5122178;28;20087;-75
2022/08/29 08:24:39;;;;;;;1.20;1.05;;;21.40;99.90;;;;;;5124550;28;20016;-75
2022/08/29 08:27:05;;;;;;;0.70;0.70;;;21.90;99.90;;;;;;5124593;28;20029;-78
2022/08/29 08:29:31;;;;;;;1.58;1.48;;;22.70;99.90;;;;;;5124491;28;20015;-77
2022/08/29 08:31:58;;;;;;;1.52;1.30;;;23.40;99.90;;;;;;5124152;28;20079;-79
2022/08/29 08:34:25;;;;;;;2.65;0.88;;;23.60;99.90;;;;;;5124438;28;20064;-76
2022/08/29 08:36:51;;;;;;;1.38;1.05;;;24.20;99.90;;;;;;5124364;28;20015;-76
2022/08/29 08:39:17;;;;;;;1.13;1.02;;;24.70;99.90;;;;;;5124385;28;20016;-78
2022/08/29 08:42:44;;;;;;;2.13;0.85;;;24.70;99.90;;;;;;5124294;28;20034;-75
2022/08/29 08:45:17;;;;;;;1.08;1.08;;;25.70;99.90;;;;;;5040747;28;20322;-76
2022/08/29 08:47:48;;;;;;;1.05;1.05;;;25.90;99.90;;;;;;5124305;28;20098;-75
2022/08/29 08:50:29;;;;;;;1.42;1.05;;;26.30;99.90;;;;;;5123150;28;20023;-79
2022/08/29 08:53:03;;;;;;;0.73;0.73;;;26.40;99.20;;;;;;5122339;28;20023;-75
2022/08/29 08:55:41;;;;;;;1.58;0.93;;;26.90;99.10;;;;;;5099695;28;20035;-77
2022/08/29 08:58:32;;;;;;;2.97;1.38;;;26.80;96.80;;;;;;5095429;28;20024;-79
2022/08/29 09:01:13;;;;;;;3.90;1.55;;;26.60;95.70;;;;;;5113621;28;20027;-75
2022/08/29 09:04:01;;;;;;;1.10;1.10;;;26.80;95.70;;;;;;5113529;28;20039;-79
2022/08/29 09:06:39;;;;;;;1.02;1.02;;;26.70;95.00;;;;;;5113631;28;20024;-79
2022/08/29 09:09:35;;;;;;;1.63;1.25;;;26.30;98.80;;;;;;5095276;28;20028;-78
2022/08/29 09:12:19;;;;;;;0.77;0.77;;;26.40;98.90;;;;;;5113438;28;20032;-79
2022/08/29 09:15:06;;;;;;;1.67;1.20;;;26.20;98.30;;;;;;5113436;28;20051;-78
2022/08/29 09:17:49;;;;;;;1.45;1.17;;;25.90;99.50;;;;;;5095355;28;20035;-78
2022/08/29 09:20:37;;;;;;;0.93;0.88;;;25.20;99.90;;;;;;5095161;28;20134;-76
2022/08/29 09:23:11;;;;;;;1.73;1.40;;;25.00;99.90;;;;;;5094915;28;20059;-79
2022/08/29 09:25:37;;;;;;;2.28;1.58;;;24.90;99.90;;;;;;5095165;28;20073;-77
2022/08/29 09:28:08;;;;;;;1.30;1.20;;;24.40;99.90;;;;;;5113397;28;20082;-79
2022/08/29 09:30:35;;;;;;;2.60;1.10;;;24.50;99.90;;;;;;5095036;28;20016;-77
2022/08/29 09:33:07;;;;;;;0.77;0.77;;;25.00;99.90;;;;;;5113349;28;20031;-78
2022/08/29 09:35:45;;;;;;;4.45;1.75;;;25.10;99.90;;;;;;5095003;28;20020;-76
2022/08/29 09:38:22;;;;;;;0.50;0.50;;;25.00;99.90;;;;;;5095026;28;20032;-73
2022/08/29 09:40:47;;;;;;;0.90;0.70;;;25.40;99.90;;;;;;5113193;28;20391;-77
2022/08/29 09:43:40;;;;;;;1.80;1.00;;;25.40;99.90;;;;;;5114134;28;20020;-76
2022/08/29 09:46:17;;;;;;;0.63;0.63;;;25.20;99.90;;;;;;5116952;28;20051;-77
2022/08/29 09:49:03;;;;;;;1.52;1.05;;;24.90;99.90;;;;;;5116956;28;20057;-76
2022/08/29 09:51:34;;;;;;;2.97;2.00;;;25.40;99.90;;;;;;5098021;28;20023;-77
2022/08/29 09:54:21;;;;;;;0.65;0.60;;;25.10;99.90;;;;;;5117295;28;20028;-74
2022/08/29 09:57:08;;;;;;;1.13;1.10;;;25.00;99.90;;;;;;5116838;28;20035;-76
2022/08/29 09:59:38;;;;;;;0.60;0.60;;;25.30;99.90;;;;;;5118790;28;20027;-75
2022/08/29 10:02:23;;;;;;;;;;;25.30;99.90;;;;;;5108140;28;20205;-75
2022/08/29 10:04:55;;;;;;;1.27;1.17;;;25.30;99.90;;;;;;5109068;28;19974;-78
2022/08/29 10:07:23;;;;;;;0.60;0.60;;;25.00;99.90;;;;;;5109075;28;20047;-77
2022/08/29 10:10:12;;;;;;;2.40;1.08;;;25.20;99.90;;;;;;5108662;28;20309;-78
2022/08/29 10:13:01;;;;;;;0.50;0.50;;;25.20;99.90;;;;;;5116483;28;20468;-76
2022/08/29 10:15:46;;;;;;;0.65;0.50;;;25.20;99.90;;;;;;5118129;28;20024;-77
2022/08/29 10:18:30;;;;;;;0.73;0.52;;;25.00;99.90;;;;;;5101796;28;20032;-76
2022/08/29 10:21:33;;;;;;;1.95;0.80;;;25.30;99.90;;;;;;5103611;28;20392;-78
2022/08/29 10:24:23;;;;;;;0.70;0.70;;;25.80;99.90;;;;;;5108243;28;20302;-78
2022/08/29 10:27:02;;;;;;;1.20;1.00;;;26.30;99.90;;;;;;5102570;28;20483;-78
2022/08/29 10:29:46;;;;;;;2.83;1.20;;;26.90;98.60;;;;;;5122188;28;20050;-77
2022/08/29 10:32:33;;;;;;;1.05;0.95;;;26.70;97.70;;;;;;5116094;28;20019;-77
2022/08/29 10:35:04;;;;;;;1.30;0.80;;;26.80;96.70;;;;;;5119040;28;20027;-75
2022/08/29 10:37:57;;;;;;;0.75;0.50;;;26.90;99.90;;;;;;5123351;28;20023;-76
2022/08/29 10:40:35;;;;;;;2.40;0.95;;;27.20;95.60;;;;;;5119587;28;20027;-76
2022/08/29 10:43:24;;;;;;;1.20;1.02;;;26.80;96.30;;;;;;5123077;28;20115;-77
2022/08/29 10:46:16;;;;;;;1.10;1.00;;;26.70;96.40;;;;;;5123764;28;20028;-77
2022/08/29 10:48:54;;;;;;;0.95;0.85;;;26.40;97.20;;;;;;5106967;28;20149;-77
2022/08/29 10:51:35;;;;;;;1.23;0.73;;;26.70;97.10;;;;;;5097502;28;20568;-76
2022/08/29 10:54:20;;;;;;;0.85;0.77;;;27.20;98.30;;;;;;5096993;28;20114;-75
2022/08/29 10:56:49;;;;;;;0.68;0.68;;;27.50;93.80;;;;;;5115696;28;20030;-76
2022/08/29 10:59:34;;;;;;;0.68;0.68;;;27.90;90.70;;;;;;5115747;28;20020;-76
2022/08/29 11:02:07;;;;;;;2.13;1.23;;;27.70;89.50;;;;;;5115355;28;20515;-76
2022/08/29 11:04:58;;;;;;;1.92;0.73;;;27.60;88.30;;;;;;5115523;28;20514;-77
2022/08/29 11:08:00;;;;;;;0.80;0.80;;;28.20;85.60;;;;;;5115318;28;20117;-77
2022/08/29 11:10:31;;;;;;;0.73;0.70;;;28.50;83.80;;;;;;5046888;28;20563;-75
2022/08/29 11:13:09;;;;;;;1.15;1.05;;;28.80;78.10;;;;;;5096909;28;20027;-78
2022/08/29 11:16:01;;;;;;;2.20;0.68;;;29.30;76.20;;;;;;5115391;28;20051;-76
2022/08/29 11:18:56;;;;;;;0.60;0.60;;;28.90;76.50;;;;;;5104197;28;20170;-77
2022/08/29 11:21:27;;;;;;;3.97;1.55;;;28.90;72.70;;;;;;5115237;28;20035;-78
2022/08/29 11:23:54;;;;;;;28.52;2.08;;;29.00;71.90;;;;;;5115129;28;20031;-76
2022/08/29 11:26:42;;;;;;;0.60;0.60;;;29.10;71.80;;;;;;5096905;28;20384;-73
2022/08/29 11:29:33;;;;;;;1.20;1.10;;;29.00;72.60;;;;;;5115013;28;20055;-76
2022/08/29 11:32:22;;;;;;;1.95;0.90;;;28.70;72.50;;;;;;5078094;28;20031;-76
2022/08/29 11:35:06;;;;;;;1.48;0.90;;;28.90;72.80;;;;;;5116755;28;20493;-77
2022/08/29 11:37:50;;;;;;;1.10;1.00;;;29.70;70.30;;;;;;5121342;28;20032;-75
2022/08/29 11:40:36;;;;;;;0.60;0.40;;;29.80;69.00;;;;;;5124860;28;20018;-75
2022/08/29 11:43:04;;;;;;;1.05;0.70;;;30.70;67.00;;;;;;5124400;28;20020;-78
2022/08/29 11:45:36;;;;;;;0.47;0.47;;;30.80;64.00;;;;;;5105934;28;20023;-76
2022/08/29 11:48:32;;;;;;;0.50;0.50;;;30.40;65.40;;;;;;5105884;28;20085;-76
2022/08/29 11:51:19;;;;;;;0.40;0.40;;;30.70;64.20;;;;;;5096768;28;20057;-76
2022/08/29 11:53:46;;;;;;;0.82;0.63;;;30.70;64.80;;;;;;5117535;28;20033;-74
2022/08/29 11:56:12;;;;;;;0.40;0.38;;;31.00;63.80;;;;;;5105129;28;20023;-72
2022/08/29 11:58:41;;;;;;;1.35;0.38;;;31.40;63.10;;;;;;5121242;28;20088;-75
2022/08/29 12:01:36;;;;;;;0.43;0.38;;;31.40;61.30;;;;;;5125081;28;20023;-73
2022/08/29 12:04:07;;;;;;;0.85;0.50;;;31.40;61.40;;;;;;5125167;28;20034;-77
2022/08/29 12:06:39;;;;;;;1.73;0.90;;;31.10;60.40;;;;;;5124345;28;20020;-74
2022/08/29 12:09:07;;;;;;;0.47;0.47;;;31.10;61.10;;;;;;5106475;28;20060;-75
2022/08/29 12:12:02;;;;;;;0.40;0.40;;;31.30;60.70;;;;;;5124718;28;20015;-73
2022/08/29 12:14:33;;;;;;;0.30;0.30;;;31.70;60.20;;;;;;5073041;28;20230;-76
2022/08/29 12:17:02;;;;;;;0.60;0.50;;;32.20;61.00;;;;;;5115061;28;20027;-75
2022/08/29 12:19:46;;;;;;;;;;;32.30;58.30;;;;;;5096136;28;20388;-73
2022/08/29 12:22:49;;;;;;;0.47;0.47;;;31.70;58.10;;;;;;5113978;28;19907;-76
2022/08/29 12:25:45;;;;;;;0.47;0.40;;;31.30;59.60;;;;;;5116799;28;20023;-73
2022/08/29 12:28:17;;;;;;;21.38;1.45;;;31.20;60.10;;;;;;5106340;28;20027;-75
2022/08/29 12:30:50;;;;;;;3.65;0.77;;;30.70;60.60;;;;;;5106335;28;20016;-75
2022/08/29 12:33:15;;;;;;;1.75;0.82;;;30.80;60.80;;;;;;5113560;28;20110;-77
2022/08/29 12:36:00;;;;;;;0.20;0.20;;;31.60;60.10;;;;;;5095499;28;20067;-74
2022/08/29 12:39:04;;;;;;;0.80;0.75;;;32.20;57.80;;;;;;5095331;28;20028;-73
2022/08/29 12:41:49;;;;;;;2.05;1.25;;;32.60;56.30;;;;;;5113666;28;20024;-72
2022/08/29 12:44:18;;;;;;;1.85;0.55;;;32.50;57.20;;;;;;5113638;28;20061;-72
2022/08/29 12:46:49;;;;;;;1.20;0.50;;;32.30;56.60;;;;;;5113533;28;20067;-73
2022/08/29 12:49:29;;;;;;;0.73;0.60;;;32.40;56.90;;;;;;5097364;28;20016;-75
2022/08/29 12:51:56;;;;;;;0.47;0.47;;;32.50;57.40;;;;;;5122570;28;20046;-73
2022/08/29 12:54:37;;;;;;;0.57;0.50;;;32.50;57.10;;;;;;5100359;28;20488;-77
2022/08/29 12:57:18;;;;;;;0.95;0.35;;;33.10;55.20;;;;;;5124001;28;20035;-77
2022/08/29 12:59:50;;;;;;;1.35;0.85;;;32.90;54.70;;;;;;5118148;28;20039;-72
2022/08/29 13:02:39;;;;;;;0.88;0.50;;;33.00;54.60;;;;;;5123338;28;20063;-73
2022/08/29 13:05:25;;;;;;;0.47;0.47;;;33.30;53.90;;;;;;5099955;28;20020;-74
2022/08/29 13:08:08;;;;;;;0.50;0.50;;;33.90;53.00;;;;;;5118025;28;20034;-76
2022/08/29 13:10:40;;;;;;;1.15;0.60;;;33.40;54.50;;;;;;5113215;28;20107;-76
2022/08/29 13:13:18;;;;;;;1.52;0.40;;;33.00;52.20;;;;;;5113327;28;20122;-73